Time;durP1;ratioP1;P1;durP2;ratioP2;P2;SDS_P1;SDS_P2;PMS_P1;PMS_P2;Temp;Humidity;BMP_temperature;BMP_pressure;BME280_temperature;BME280_humidity;BME280_pressure;Samples;Min_cycle;Max_cycle;Signal;HPM_P1;HPM_P2
2023/04/11 00:01:53;;;;;;;1.93;1.20;;;6.90;99.90;;;;;;5002774;28;20569;-54
2023/04/11 00:04:20;;;;;;;1.50;1.27;;;7.20;99.90;;;;;;4993603;28;21007;-53
2023/04/11 00:06:48;;;;;;;1.30;1.17;;;7.20;99.90;;;;;;4999283;28;20888;-53
2023/04/11 00:09:15;;;;;;;1.80;1.37;;;7.40;99.90;;;;;;5033076;28;20494;-53
2023/04/11 00:11:43;;;;;;;2.00;1.37;;;7.40;99.90;;;;;;5032934;28;20449;-53
2023/04/11 00:14:11;;;;;;;1.43;1.00;;;7.40;99.90;;;;;;5021234;28;20443;-53
2023/04/11 00:16:38;;;;;;;1.37;1.03;;;7.50;99.90;;;;;;5014185;28;20934;-53
2023/04/11 00:19:06;;;;;;;2.17;1.10;;;7.40;99.90;;;;;;5013355;28;20497;-53
2023/04/11 00:21:34;;;;;;;1.50;1.17;;;7.40;99.90;;;;;;5013011;28;20452;-53
2023/04/11 00:24:02;;;;;;;2.40;1.20;;;7.50;99.90;;;;;;5013112;28;20448;-53
2023/04/11 00:26:29;;;;;;;2.10;1.70;;;7.40;99.90;;;;;;5012576;28;20530;-53
2023/04/11 00:28:56;;;;;;;2.57;1.60;;;7.20;99.90;;;;;;4992824;28;20464;-54
2023/04/11 00:31:23;;;;;;;2.30;1.43;;;6.80;99.90;;;;;;4993312;28;20476;-53
2023/04/11 00:33:50;;;;;;;1.83;1.40;;;6.60;99.90;;;;;;4991153;28;20527;-53
2023/04/11 00:36:17;;;;;;;3.07;1.23;;;6.90;99.90;;;;;;4993161;28;20527;-53
2023/04/11 00:38:45;;;;;;;1.20;0.90;;;7.10;99.90;;;;;;5027794;28;20498;-53
2023/04/11 00:41:13;;;;;;;2.73;1.30;;;7.20;99.90;;;;;;5012777;28;20502;-53
2023/04/11 00:43:40;;;;;;;2.70;1.57;;;7.20;99.90;;;;;;5012725;28;20569;-53
2023/04/11 00:46:09;;;;;;;2.10;1.57;;;7.20;99.90;;;;;;5012375;28;20468;-53
2023/04/11 00:48:35;;;;;;;1.87;1.20;;;7.30;99.90;;;;;;5026612;28;20476;-53
2023/04/11 00:51:03;;;;;;;1.73;1.10;;;7.30;99.90;;;;;;5032318;28;20443;-53
2023/04/11 00:53:31;;;;;;;1.30;1.10;;;7.20;99.90;;;;;;5031846;28;20949;-53
2023/04/11 00:55:59;;;;;;;1.30;0.90;;;7.30;99.90;;;;;;5031913;28;21011;-53
2023/04/11 00:58:28;;;;;;;2.13;1.30;;;7.10;99.90;;;;;;5015457;28;20473;-54
2023/04/11 01:00:55;;;;;;;2.27;0.90;;;7.20;99.90;;;;;;5012511;28;20483;-53
2023/04/11 01:03:22;;;;;;;1.40;0.93;;;7.20;99.90;;;;;;5016313;28;20557;-54
2023/04/11 01:05:51;;;;;;;1.50;0.80;;;7.30;99.90;;;;;;5031474;28;20441;-53
2023/04/11 01:08:19;;;;;;;2.83;1.30;;;7.30;99.90;;;;;;5022518;28;20502;-53
2023/04/11 01:10:46;;;;;;;3.50;1.40;;;7.30;99.90;;;;;;5012182;28;20475;-54
2023/04/11 01:13:13;;;;;;;2.97;1.43;;;7.40;99.90;;;;;;5012914;28;20449;-53
2023/04/11 01:15:41;;;;;;;1.53;1.30;;;7.40;99.90;;;;;;5012101;28;20479;-54
2023/04/11 01:18:08;;;;;;;1.20;0.70;;;7.10;99.90;;;;;;5024907;28;20499;-53
2023/04/11 01:20:37;;;;;;;3.57;0.80;;;6.90;99.90;;;;;;5031653;28;20450;-53
2023/04/11 01:23:05;;;;;;;1.37;1.13;;;6.80;99.90;;;;;;5030958;28;20490;-53
2023/04/11 01:25:34;;;;;;;1.23;0.90;;;7.10;99.90;;;;;;5031324;28;21013;-53
2023/04/11 01:28:02;;;;;;;2.13;1.20;;;7.10;99.90;;;;;;5019052;28;20499;-54
2023/04/11 01:30:28;;;;;;;2.03;1.30;;;7.00;99.90;;;;;;5027515;28;20447;-53
2023/04/11 01:32:55;;;;;;;10.30;4.90;;;7.20;99.90;;;;;;5030253;28;20478;-53
2023/04/11 01:35:22;;;;;;;10.57;5.50;;;7.20;99.90;;;;;;5031083;28;20525;-53
2023/04/11 01:37:49;;;;;;;4.60;2.70;;;7.10;99.90;;;;;;5020240;28;20954;-53
2023/04/11 01:40:18;;;;;;;1.97;1.40;;;6.90;99.90;;;;;;5011511;28;20443;-53
2023/04/11 01:42:47;;;;;;;1.83;1.23;;;6.80;99.90;;;;;;5011498;28;20569;-53
2023/04/11 01:45:15;;;;;;;2.77;1.20;;;6.80;99.90;;;;;;5014075;28;20530;-53
2023/04/11 01:47:42;;;;;;;1.80;1.27;;;6.90;99.90;;;;;;5021436;28;20882;-53
2023/04/11 01:50:10;;;;;;;2.27;1.30;;;7.00;99.90;;;;;;5011175;28;20864;-53
2023/04/11 01:52:37;;;;;;;2.33;1.40;;;7.10;99.90;;;;;;5011342;28;20444;-53
2023/04/11 01:55:05;;;;;;;3.23;1.43;;;7.10;99.90;;;;;;5030152;28;20933;-54
2023/04/11 01:57:32;;;;;;;2.90;1.70;;;7.00;99.90;;;;;;5029493;28;20526;-53
2023/04/11 02:00:00;;;;;;;7.13;2.13;;;7.00;99.90;;;;;;5015412;28;20542;-53
2023/04/11 02:02:27;;;;;;;4.10;1.90;;;7.10;99.90;;;;;;5010709;28;20511;-53
2023/04/11 02:04:54;;;;;;;2.70;2.20;;;6.80;99.90;;;;;;5011314;28;20474;-53
2023/04/11 02:07:21;;;;;;;3.67;1.80;;;6.70;99.90;;;;;;5012387;28;20479;-53
2023/04/11 02:09:48;;;;;;;4.07;2.23;;;6.60;99.90;;;;;;5011254;28;20526;-53
2023/04/11 02:12:15;;;;;;;4.07;2.07;;;6.70;99.90;;;;;;5011514;28;20471;-53
2023/04/11 02:14:43;;;;;;;3.03;1.97;;;6.70;99.90;;;;;;5011601;28;20522;-53
2023/04/11 02:17:12;;;;;;;3.43;1.80;;;6.80;99.90;;;;;;5023019;28;20485;-53
2023/04/11 02:19:40;;;;;;;2.63;1.43;;;7.00;99.90;;;;;;5016562;28;20473;-53
2023/04/11 02:22:08;;;;;;;3.47;1.87;;;6.80;99.90;;;;;;5010383;28;20443;-53
2023/04/11 02:24:35;;;;;;;2.60;1.70;;;6.50;99.90;;;;;;5011134;28;20938;-53
2023/04/11 02:27:02;;;;;;;2.93;2.07;;;6.30;99.90;;;;;;5021401;28;20492;-53
2023/04/11 02:29:29;;;;;;;3.57;2.60;;;6.20;99.90;;;;;;5030578;28;20875;-53
2023/04/11 02:31:56;;;;;;;2.40;2.17;;;6.20;99.90;;;;;;5029721;28;20441;-53
2023/04/11 02:34:24;;;;;;;3.67;1.90;;;6.10;99.90;;;;;;5031154;28;20474;-53
2023/04/11 02:36:51;;;;;;;2.50;1.73;;;6.20;99.90;;;;;;5021731;28;20538;-53
2023/04/11 02:39:20;;;;;;;2.03;1.83;;;6.40;99.90;;;;;;5041566;23;20515;-81
2023/04/11 02:41:47;;;;;;;2.70;1.70;;;6.60;99.90;;;;;;5001837;28;20579;-81
2023/04/11 02:44:14;;;;;;;2.60;2.20;;;6.70;99.90;;;;;;5001957;28;20476;-81
2023/04/11 02:46:41;;;;;;;4.07;1.83;;;6.40;99.90;;;;;;5000909;28;20483;-81
2023/04/11 02:49:08;;;;;;;1.60;1.30;;;6.30;99.90;;;;;;5002337;28;20471;-81
2023/04/11 02:51:36;;;;;;;2.43;1.90;;;6.50;99.90;;;;;;5030192;23;20494;-49
2023/04/11 02:54:04;;;;;;;2.23;1.80;;;6.70;99.90;;;;;;5029988;28;20473;-48
2023/04/11 02:56:32;;;;;;;2.20;2.00;;;6.60;99.90;;;;;;5032282;28;20449;-47
2023/04/11 02:58:59;;;;;;;2.00;1.80;;;6.70;99.90;;;;;;5027454;28;20497;-48
2023/04/11 03:01:26;;;;;;;3.70;2.10;;;6.90;99.90;;;;;;5013826;28;20538;-49
2023/04/11 03:03:53;;;;;;;2.03;1.83;;;6.90;99.90;;;;;;5014520;28;20483;-48
2023/04/11 03:06:22;;;;;;;6.10;2.87;;;6.70;99.90;;;;;;5013733;28;20440;-47
2023/04/11 03:08:51;;;;;;;2.40;1.93;;;6.70;99.90;;;;;;5014008;28;20521;-47
2023/04/11 03:11:18;;;;;;;2.63;1.80;;;6.70;99.90;;;;;;5014068;28;20526;-48
2023/04/11 03:13:45;;;;;;;1.70;1.30;;;6.70;99.90;;;;;;5014184;28;20533;-48
2023/04/11 03:16:12;;;;;;;2.00;1.60;;;6.70;99.90;;;;;;5013702;28;20475;-49
2023/04/11 03:18:39;;;;;;;2.00;1.60;;;6.70;99.90;;;;;;5013428;28;20463;-49
2023/04/11 03:21:06;;;;;;;2.73;1.73;;;6.80;99.90;;;;;;5013874;28;20550;-48
2023/04/11 03:23:33;;;;;;;1.60;1.50;;;6.90;99.90;;;;;;5014111;28;20573;-47
2023/04/11 03:26:02;;;;;;;2.90;1.60;;;7.00;99.90;;;;;;5013567;28;20486;-48
2023/04/11 03:28:29;;;;;;;2.77;1.90;;;7.00;99.90;;;;;;5013722;28;20494;-48
2023/04/11 03:30:56;;;;;;;2.47;1.70;;;6.80;99.90;;;;;;5014042;28;20479;-46
2023/04/11 03:33:22;;;;;;;2.70;1.83;;;6.70;99.90;;;;;;5013007;28;20990;-48
2023/04/11 03:35:49;;;;;;;5.60;3.37;;;6.60;99.90;;;;;;5013575;28;20879;-47
2023/04/11 03:38:16;;;;;;;6.00;4.33;;;6.40;99.90;;;;;;5013622;28;20559;-47
2023/04/11 03:40:43;;;;;;;4.77;2.90;;;6.40;99.90;;;;;;5013739;28;20526;-48
2023/04/11 03:43:12;;;;;;;4.57;2.60;;;6.50;99.90;;;;;;5013473;28;21040;-48
2023/04/11 03:45:38;;;;;;;2.17;1.97;;;6.50;99.90;;;;;;5013598;28;20443;-47
2023/04/11 03:48:06;;;;;;;2.23;1.80;;;6.40;99.90;;;;;;5013363;28;20535;-47
2023/04/11 03:50:33;;;;;;;2.27;2.07;;;6.40;99.90;;;;;;5013445;28;20499;-47
2023/04/11 03:53:00;;;;;;;2.73;1.83;;;6.30;99.90;;;;;;5013285;28;20504;-47
2023/04/11 03:55:27;;;;;;;2.20;1.80;;;6.50;99.90;;;;;;5013321;28;20475;-47
2023/04/11 03:57:53;;;;;;;1.60;1.50;;;6.50;99.90;;;;;;5013116;28;20530;-50
2023/04/11 04:00:22;;;;;;;2.00;1.70;;;6.50;99.90;;;;;;5013109;28;20498;-48
2023/04/11 04:02:49;;;;;;;2.20;1.97;;;6.50;99.90;;;;;;5012864;28;20483;-47
2023/04/11 04:05:16;;;;;;;2.07;1.70;;;6.70;99.90;;;;;;5013211;28;20535;-49
2023/04/11 04:07:42;;;;;;;1.63;1.30;;;6.80;99.90;;;;;;5013127;28;20876;-47
2023/04/11 04:10:10;;;;;;;2.90;2.10;;;6.90;99.90;;;;;;5013206;28;20554;-47
2023/04/11 04:12:36;;;;;;;2.73;1.60;;;6.90;99.90;;;;;;5012644;28;20475;-48
2023/04/11 04:15:04;;;;;;;1.73;1.50;;;6.80;99.90;;;;;;5012914;28;20483;-48
2023/04/11 04:17:32;;;;;;;2.17;1.97;;;6.90;99.90;;;;;;5012483;28;21022;-47
2023/04/11 04:19:59;;;;;;;2.40;1.73;;;6.70;99.90;;;;;;5012964;28;20550;-48
2023/04/11 04:22:26;;;;;;;2.37;1.63;;;6.60;99.90;;;;;;5012225;28;20443;-48
2023/04/11 04:24:56;;;;;;;2.23;1.70;;;6.70;99.90;;;;;;5012405;28;20573;-47
2023/04/11 04:27:24;;;;;;;1.90;1.53;;;6.80;99.90;;;;;;5012096;28;20809;-48
2023/04/11 04:29:51;;;;;;;1.83;1.70;;;6.80;99.90;;;;;;5012788;28;20834;-48
2023/04/11 04:32:21;;;;;;;2.13;1.80;;;6.90;99.90;;;;;;5011615;28;20978;-47
2023/04/11 04:34:53;;;;;;;1.90;1.80;;;6.90;99.90;;;;;;5012491;28;20446;-47
2023/04/11 04:37:21;;;;;;;1.70;1.57;;;6.90;99.90;;;;;;5012488;28;20463;-47
2023/04/11 04:39:52;;;;;;;1.73;1.40;;;7.00;99.90;;;;;;5012483;28;20495;-48
2023/04/11 04:42:21;;;;;;;2.63;2.13;;;6.90;99.90;;;;;;5009842;28;20471;-47
2023/04/11 04:44:48;;;;;;;2.40;2.10;;;7.00;99.90;;;;;;5011629;28;21017;-48
2023/04/11 04:47:15;;;;;;;3.60;2.17;;;7.10;99.90;;;;;;5010830;28;20443;-50
2023/04/11 04:49:42;;;;;;;3.10;2.40;;;7.10;99.90;;;;;;5012554;28;20547;-48
2023/04/11 04:52:11;;;;;;;7.53;3.20;;;7.00;99.90;;;;;;5011480;28;20490;-48
2023/04/11 04:54:38;;;;;;;5.00;2.47;;;7.10;99.90;;;;;;5008301;28;20530;-47
2023/04/11 04:57:05;;;;;;;17.03;14.80;;;7.00;99.90;;;;;;5010932;28;20443;-48
2023/04/11 04:59:32;;;;;;;6.93;6.33;;;7.20;99.90;;;;;;5010874;28;20550;-50
2023/04/11 05:01:59;;;;;;;3.00;2.70;;;7.20;99.90;;;;;;5006096;28;20894;-47
2023/04/11 05:04:26;;;;;;;3.97;2.20;;;7.10;99.90;;;;;;5003843;28;20510;-47
2023/04/11 05:06:53;;;;;;;3.77;2.57;;;6.90;99.90;;;;;;5007465;28;20472;-48
2023/04/11 05:09:21;;;;;;;3.13;2.23;;;7.00;99.90;;;;;;5009245;28;21037;-49
2023/04/11 05:11:49;;;;;;;2.03;1.80;;;6.80;99.90;;;;;;5010730;28;20486;-48
2023/04/11 05:14:16;;;;;;;3.10;1.50;;;6.70;99.90;;;;;;5006853;28;21027;-48
2023/04/11 05:16:43;;;;;;;7.80;3.13;;;6.80;99.90;;;;;;5010463;28;20439;-48
2023/04/11 05:19:10;;;;;;;8.77;3.63;;;6.90;99.90;;;;;;5010805;28;20619;-48
2023/04/11 05:21:37;;;;;;;3.70;3.40;;;6.90;99.90;;;;;;5006685;28;20527;-48
2023/04/11 05:24:05;;;;;;;3.33;3.03;;;6.90;99.90;;;;;;5011021;28;20566;-48
2023/04/11 05:26:33;;;;;;;8.93;7.57;;;6.90;99.90;;;;;;5008705;28;20523;-49
2023/04/11 05:29:01;;;;;;;13.03;11.63;;;7.10;99.90;;;;;;5008447;28;21000;-51
2023/04/11 05:31:28;;;;;;;7.40;6.67;;;7.20;99.90;;;;;;5008821;28;20499;-45
2023/04/11 05:33:56;;;;;;;4.10;3.70;;;7.20;99.90;;;;;;5009927;28;20446;-48
2023/04/11 05:36:23;;;;;;;7.20;4.63;;;7.10;99.90;;;;;;5010856;28;20654;-47
2023/04/11 05:38:50;;;;;;;6.27;4.50;;;7.10;99.90;;;;;;5011249;28;20455;-48
2023/04/11 05:41:17;;;;;;;9.77;6.03;;;6.80;99.90;;;;;;5006224;28;20522;-50
2023/04/11 05:43:45;;;;;;;6.93;5.77;;;6.70;99.90;;;;;;5011363;28;20558;-47
2023/04/11 05:46:12;;;;;;;5.50;4.20;;;6.60;99.90;;;;;;5011494;28;20550;-48
2023/04/11 05:48:40;;;;;;;4.83;3.40;;;6.70;99.90;;;;;;5011306;28;20471;-49
2023/04/11 05:51:07;;;;;;;11.43;10.40;;;6.90;99.90;;;;;;5011229;28;20509;-50
2023/04/11 05:53:34;;;;;;;7.07;6.37;;;7.00;99.90;;;;;;5011162;28;20475;-48
2023/04/11 05:56:01;;;;;;;5.30;4.27;;;7.10;99.90;;;;;;5009630;28;20818;-48
2023/04/11 05:58:29;;;;;;;8.40;4.97;;;7.10;99.90;;;;;;5010320;28;20816;-48
2023/04/11 06:00:58;;;;;;;6.23;4.23;;;7.10;99.90;;;;;;5010891;28;20950;-48
2023/04/11 06:03:25;;;;;;;7.00;4.30;;;7.10;99.90;;;;;;5009217;28;20958;-48
2023/04/11 06:05:52;;;;;;;6.50;5.13;;;7.20;99.90;;;;;;5009690;28;20445;-48
2023/04/11 06:08:20;;;;;;;6.10;5.33;;;7.20;99.90;;;;;;5010873;28;20454;-51
2023/04/11 06:10:47;;;;;;;15.30;5.63;;;7.20;99.90;;;;;;5010161;28;20483;-49
2023/04/11 06:13:14;;;;;;;6.63;5.83;;;7.30;99.90;;;;;;5010576;28;20534;-47
2023/04/11 06:15:40;;;;;;;6.00;4.90;;;7.00;99.90;;;;;;5008786;28;20486;-49
2023/04/11 06:18:09;;;;;;;7.23;4.03;;;6.90;99.90;;;;;;5010641;28;20530;-48
2023/04/11 06:20:36;;;;;;;9.60;4.00;;;6.80;99.90;;;;;;5010970;28;20505;-48
2023/04/11 06:23:02;;;;;;;4.90;3.27;;;6.90;99.90;;;;;;5010776;28;20868;-47
2023/04/11 06:25:30;;;;;;;7.97;3.90;;;6.90;99.90;;;;;;5010773;28;20919;-47
2023/04/11 06:27:56;;;;;;;6.10;4.73;;;7.00;99.90;;;;;;5009553;28;20953;-49
2023/04/11 06:30:23;;;;;;;4.23;3.30;;;7.00;99.90;;;;;;5011004;28;20505;-47
2023/04/11 06:32:51;;;;;;;3.83;2.80;;;7.10;99.90;;;;;;5014886;28;20443;-47
2023/04/11 06:35:23;;;;;;;3.37;2.90;;;7.20;99.90;;;;;;5014869;28;20466;-48
2023/04/11 06:37:50;;;;;;;5.77;2.80;;;7.30;99.90;;;;;;5014951;28;20451;-48
2023/04/11 06:40:18;;;;;;;2.47;1.90;;;7.50;99.90;;;;;;5013889;28;20560;-50
2023/04/11 06:42:45;;;;;;;4.30;3.00;;;7.60;99.90;;;;;;5014589;28;20824;-48
2023/04/11 06:45:13;;;;;;;5.37;2.77;;;7.70;99.90;;;;;;5014573;28;20515;-47
2023/04/11 06:47:40;;;;;;;5.43;3.70;;;7.80;99.90;;;;;;5015010;28;20486;-49
2023/04/11 06:50:08;;;;;;;7.70;3.73;;;7.80;99.90;;;;;;5014583;28;20463;-48
2023/04/11 06:52:36;;;;;;;4.87;3.63;;;7.80;99.90;;;;;;5014609;28;20497;-49
2023/04/11 06:55:05;;;;;;;4.00;3.70;;;7.80;99.90;;;;;;5014353;28;20468;-48
2023/04/11 06:57:32;;;;;;;4.93;3.90;;;7.80;99.90;;;;;;5014349;28;20447;-48
2023/04/11 06:59:59;;;;;;;4.73;3.10;;;7.80;99.90;;;;;;5014729;28;20927;-48
2023/04/11 07:02:26;;;;;;;3.33;3.00;;;7.90;99.90;;;;;;5013374;28;20521;-50
2023/04/11 07:04:53;;;;;;;4.03;3.53;;;7.90;99.90;;;;;;5014715;28;20570;-49
2023/04/11 07:07:20;;;;;;;3.47;3.07;;;7.90;99.90;;;;;;5014073;28;20751;-48
2023/04/11 07:09:48;;;;;;;6.83;3.10;;;7.90;99.90;;;;;;5013684;28;20552;-48
2023/04/11 07:12:15;;;;;;;3.87;2.90;;;7.90;99.90;;;;;;5013664;28;20534;-48
2023/04/11 07:14:42;;;;;;;3.00;2.70;;;7.80;99.90;;;;;;5014405;28;20490;-48
2023/04/11 07:17:09;;;;;;;3.60;2.50;;;7.80;99.90;;;;;;5014068;28;20549;-48
2023/04/11 07:19:36;;;;;;;2.73;1.87;;;7.90;99.90;;;;;;5014682;28;20517;-48
2023/04/11 07:22:03;;;;;;;2.53;2.20;;;8.00;99.90;;;;;;5014139;28;20474;-48
2023/04/11 07:24:30;;;;;;;5.33;4.73;;;8.20;99.90;;;;;;5014012;28;20562;-48
2023/04/11 07:27:00;;;;;;;6.00;3.73;;;8.20;99.90;;;;;;5013946;28;20475;-48
2023/04/11 07:29:27;;;;;;;9.33;7.97;;;8.20;99.90;;;;;;5014027;28;20546;-48
2023/04/11 07:31:54;;;;;;;8.47;4.70;;;8.20;99.90;;;;;;5013988;28;20453;-49
2023/04/11 07:34:21;;;;;;;8.57;6.20;;;8.30;99.90;;;;;;5013759;28;20528;-48
2023/04/11 07:36:49;;;;;;;6.63;5.73;;;8.20;99.90;;;;;;5013824;28;20478;-48
2023/04/11 07:39:16;;;;;;;7.53;4.60;;;8.10;99.90;;;;;;5013818;28;20467;-49
2023/04/11 07:41:43;;;;;;;5.50;4.17;;;8.20;99.90;;;;;;5013021;28;20538;-48
2023/04/11 07:44:11;;;;;;;3.60;3.30;;;8.30;99.90;;;;;;5013511;28;20585;-48
2023/04/11 07:46:38;;;;;;;3.40;2.40;;;8.40;99.90;;;;;;5013608;28;20471;-50
2023/04/11 07:49:05;;;;;;;4.70;3.60;;;8.30;99.90;;;;;;5013022;28;20550;-48
2023/04/11 07:51:32;;;;;;;2.87;2.57;;;8.10;99.90;;;;;;5013649;28;20815;-48
2023/04/11 07:53:59;;;;;;;5.53;3.03;;;8.10;99.90;;;;;;5013725;28;20480;-48
2023/04/11 07:56:26;;;;;;;3.03;2.73;;;8.20;99.90;;;;;;5013418;28;20952;-49
2023/04/11 07:58:54;;;;;;;4.53;3.30;;;8.30;99.90;;;;;;5013593;28;20555;-48
2023/04/11 08:01:23;;;;;;;4.87;3.30;;;8.20;99.90;;;;;;5013335;28;20488;-47
2023/04/11 08:03:51;;;;;;;3.93;2.90;;;8.30;99.90;;;;;;5013275;28;20837;-48
2023/04/11 08:06:18;;;;;;;5.07;2.40;;;8.20;99.90;;;;;;5013238;28;20452;-48
2023/04/11 08:08:46;;;;;;;2.63;2.20;;;8.20;99.90;;;;;;5012884;28;20553;-47
2023/04/11 08:11:13;;;;;;;3.07;1.70;;;8.20;99.90;;;;;;5012917;28;20526;-47
2023/04/11 08:13:39;;;;;;;2.20;2.00;;;8.20;99.90;;;;;;5012265;28;20955;-47
2023/04/11 08:16:08;;;;;;;3.50;2.27;;;8.40;99.90;;;;;;5012934;28;20467;-48
2023/04/11 08:18:40;;;;;;;3.37;2.60;;;8.60;99.90;;;;;;5012802;28;20463;-48
2023/04/11 08:21:09;;;;;;;5.80;2.80;;;8.60;99.90;;;;;;5013139;28;20542;-49
2023/04/11 08:23:36;;;;;;;2.53;2.27;;;8.60;99.90;;;;;;5012211;28;20531;-48
2023/04/11 08:26:03;;;;;;;3.80;3.07;;;8.70;99.90;;;;;;5012057;28;20843;-47
2023/04/11 08:28:30;;;;;;;4.03;2.90;;;8.60;99.90;;;;;;5012149;28;20875;-48
2023/04/11 08:30:57;;;;;;;3.57;3.27;;;8.70;99.90;;;;;;5013010;28;20443;-48
2023/04/11 08:33:24;;;;;;;4.20;3.70;;;8.80;99.90;;;;;;5012539;28;20519;-48
2023/04/11 08:35:53;;;;;;;6.63;3.90;;;8.80;99.90;;;;;;5013024;28;20490;-48
2023/04/11 08:38:20;;;;;;;4.40;3.87;;;8.80;99.90;;;;;;5012516;28;20451;-48
2023/04/11 08:40:47;;;;;;;4.13;3.57;;;8.90;99.90;;;;;;5011870;28;20542;-48
2023/04/11 08:43:14;;;;;;;10.73;4.33;;;8.90;99.90;;;;;;5012568;28;20950;-48
2023/04/11 08:45:41;;;;;;;4.63;3.53;;;9.00;99.90;;;;;;5012432;28;20567;-48
2023/04/11 08:48:11;;;;;;;4.03;3.33;;;8.90;99.90;;;;;;5012591;28;20848;-49
2023/04/11 08:53:07;;;;;;;5.70;3.73;;;8.90;99.90;;;;;;5038773;23;20582;-81
2023/04/11 08:55:34;;;;;;;4.33;3.50;;;9.00;99.90;;;;;;5013063;28;20218;-81
2023/04/11 08:58:02;;;;;;;5.00;3.47;;;9.00;99.90;;;;;;5013344;28;20535;-81
2023/04/11 09:00:31;;;;;;;4.13;3.53;;;9.10;99.90;;;;;;5012969;28;20529;-80
2023/04/11 09:02:59;;;;;;;4.23;3.83;;;9.10;99.90;;;;;;5012817;28;20468;-81
2023/04/11 09:05:30;;;;;;;6.20;3.17;;;9.00;99.90;;;;;;5030226;23;20511;-52
2023/04/11 09:07:58;;;;;;;3.60;3.30;;;9.00;99.90;;;;;;4992031;28;20542;-52
2023/04/11 09:10:27;;;;;;;4.60;2.90;;;9.20;99.90;;;;;;4991779;28;20543;-51
2023/04/11 09:12:54;;;;;;;4.10;3.07;;;9.30;99.90;;;;;;4991930;28;20493;-53
2023/04/11 09:15:23;;;;;;;3.63;2.80;;;9.30;99.90;;;;;;4991858;28;20559;-55
2023/04/11 09:17:50;;;;;;;4.93;3.07;;;9.10;99.90;;;;;;4992392;28;20495;-51
2023/04/11 09:20:18;;;;;;;4.60;3.10;;;9.20;99.90;;;;;;4993352;28;20523;-51
2023/04/11 09:22:48;;;;;;;3.43;3.07;;;9.20;99.90;;;;;;4991296;28;20496;-54
2023/04/11 09:25:15;;;;;;;4.50;3.27;;;9.20;99.90;;;;;;4992155;28;20484;-51
2023/04/11 09:27:43;;;;;;;4.00;3.40;;;9.20;99.90;;;;;;4991580;28;20540;-54
2023/04/11 09:30:22;;;;;;;4.77;3.53;;;9.40;99.90;;;;;;4991656;28;20480;-53
2023/04/11 09:32:51;;;;;;;4.63;3.23;;;9.40;99.90;;;;;;4992002;28;20556;-52
2023/04/11 09:35:21;;;;;;;3.33;2.87;;;9.50;99.90;;;;;;4991332;28;20469;-52
2023/04/11 09:37:49;;;;;;;4.23;3.83;;;9.50;99.90;;;;;;4992315;28;20445;-51
2023/04/11 09:40:19;;;;;;;3.43;3.13;;;9.60;99.90;;;;;;4991951;28;20537;-51
2023/04/11 09:42:48;;;;;;;4.27;3.50;;;9.60;99.90;;;;;;4990348;28;20468;-51
2023/04/11 09:45:20;;;;;;;5.23;3.93;;;9.50;99.90;;;;;;4990581;28;20568;-51
2023/04/11 09:47:47;;;;;;;4.60;3.50;;;9.50;99.90;;;;;;4991590;28;20447;-52
2023/04/11 09:50:15;;;;;;;4.97;3.00;;;9.50;99.90;;;;;;4991568;28;20477;-53
2023/04/11 09:52:43;;;;;;;5.63;4.20;;;9.60;99.90;;;;;;4991550;28;20466;-52
2023/04/11 09:55:12;;;;;;;4.43;3.73;;;9.60;99.90;;;;;;4991291;28;21003;-51
2023/04/11 09:57:44;;;;;;;6.33;4.30;;;9.60;99.90;;;;;;4992003;28;20458;-52
2023/04/11 10:00:15;;;;;;;4.17;3.77;;;9.70;99.90;;;;;;4992067;28;20457;-53
2023/04/11 10:02:43;;;;;;;4.10;3.70;;;9.80;99.90;;;;;;4991424;28;20976;-52
2023/04/11 10:05:12;;;;;;;3.80;3.30;;;9.90;99.90;;;;;;4991344;28;20472;-52
2023/04/11 10:07:46;;;;;;;5.33;4.20;;;9.70;99.90;;;;;;4990964;28;20958;-52
2023/04/11 10:10:18;;;;;;;6.53;4.20;;;9.80;99.90;;;;;;4991098;28;20485;-51
2023/04/11 10:12:46;;;;;;;4.20;3.80;;;9.80;99.90;;;;;;4985636;28;20517;-51
2023/04/11 10:15:17;;;;;;;4.20;3.77;;;9.90;99.90;;;;;;4979794;28;20538;-51
2023/04/11 10:18:07;;;;;;;3.67;3.37;;;10.10;99.90;;;;;;4980070;28;20543;-52
2023/04/11 10:20:44;;;;;;;4.63;4.07;;;10.20;99.90;;;;;;4986902;28;20458;-53
2023/04/11 10:23:12;;;;;;;4.83;4.07;;;10.20;99.90;;;;;;4979184;28;20470;-51
2023/04/11 10:25:54;;;;;;;5.57;4.33;;;10.10;99.90;;;;;;4978021;28;20853;-51
2023/04/11 10:28:31;;;;;;;4.70;3.60;;;10.20;99.90;;;;;;4985240;28;20516;-53
2023/04/11 10:31:08;;;;;;;3.90;3.60;;;10.40;99.90;;;;;;4979805;28;20460;-54
2023/04/11 10:33:36;;;;;;;5.23;3.80;;;10.50;99.90;;;;;;4980188;28;20458;-52
2023/04/11 10:36:08;;;;;;;7.63;4.20;;;10.50;99.90;;;;;;4979970;28;20433;-52
2023/04/11 10:38:52;;;;;;;7.73;3.63;;;10.60;99.90;;;;;;4978844;28;20490;-53
2023/04/11 10:41:27;;;;;;;6.97;4.03;;;10.70;99.90;;;;;;4978294;28;20463;-51
2023/04/11 10:44:13;;;;;;;4.43;4.03;;;10.70;99.90;;;;;;4981330;28;20473;-52
2023/04/11 10:46:46;;;;;;;4.70;4.00;;;10.60;99.90;;;;;;4981212;28;20485;-52
2023/04/11 10:49:30;;;;;;;4.83;4.33;;;10.80;99.90;;;;;;4980046;28;20703;-52
2023/04/11 10:52:17;;;;;;;4.97;4.33;;;11.00;99.90;;;;;;4984794;28;20818;-50
2023/04/11 10:54:44;;;;;;;3.80;3.40;;;11.00;99.90;;;;;;4980790;28;21020;-49
2023/04/11 10:57:11;;;;;;;3.60;3.20;;;10.90;99.90;;;;;;4974558;28;20902;-49
2023/04/11 11:00:00;;;;;;;4.03;3.60;;;10.80;99.90;;;;;;4979802;28;20451;-49
2023/04/11 11:02:38;;;;;;;5.30;3.57;;;10.90;99.90;;;;;;4971705;28;20992;-49
2023/04/11 11:05:20;;;;;;;4.57;4.17;;;10.90;99.90;;;;;;4971394;28;20519;-49
2023/04/11 11:07:51;;;;;;;3.57;3.37;;;10.90;99.90;;;;;;4981595;28;20454;-53
2023/04/11 11:10:41;;;;;;;4.17;3.53;;;10.90;99.90;;;;;;4972721;28;20460;-50
2023/04/11 11:13:09;;;;;;;5.83;4.60;;;11.00;99.90;;;;;;4980200;28;20481;-53
2023/04/11 11:15:37;;;;;;;5.03;3.97;;;11.20;99.90;;;;;;4974943;28;20451;-50
2023/04/11 11:18:08;;;;;;;5.13;3.10;;;11.30;99.90;;;;;;4975755;28;20537;-49
2023/04/11 11:20:36;;;;;;;3.60;3.30;;;11.50;99.90;;;;;;4986524;28;20495;-50
2023/04/11 11:23:04;;;;;;;6.63;3.57;;;11.70;99.90;;;;;;4986625;28;20465;-51
2023/04/11 11:25:32;;;;;;;4.73;3.00;;;11.80;99.90;;;;;;4992131;28;20569;-53
2023/04/11 11:28:03;;;;;;;4.10;3.70;;;11.80;99.90;;;;;;4994369;28;21012;-52
2023/04/11 11:30:30;;;;;;;8.87;3.03;;;11.50;99.90;;;;;;4997093;28;21025;-52
2023/04/11 11:32:57;;;;;;;4.10;3.30;;;11.30;99.90;;;;;;4998083;28;20462;-52
2023/04/11 11:35:26;;;;;;;4.40;3.07;;;11.40;99.90;;;;;;4996518;28;20496;-50
2023/04/11 11:37:54;;;;;;;4.57;2.60;;;11.50;99.90;;;;;;4996150;28;20446;-50
2023/04/11 11:40:22;;;;;;;4.10;2.80;;;11.30;99.90;;;;;;4997742;28;20457;-53
2023/04/11 11:42:50;;;;;;;8.23;2.80;;;11.20;99.90;;;;;;4997002;28;20464;-51
2023/04/11 11:45:18;;;;;;;3.60;2.10;;;11.10;99.90;;;;;;4998068;28;20484;-50
2023/04/11 11:47:47;;;;;;;2.93;1.30;;;10.90;99.90;;;;;;4997701;28;20937;-50
2023/04/11 11:50:26;;;;;;;2.50;2.17;;;11.00;99.90;;;;;;4997637;28;20478;-53
2023/04/11 11:52:53;;;;;;;6.30;2.17;;;10.80;99.90;;;;;;4997637;28;20541;-50
2023/04/11 11:55:31;;;;;;;1.73;1.40;;;10.70;99.90;;;;;;4997498;28;20444;-50
2023/04/11 11:58:01;;;;;;;1.70;1.33;;;10.50;99.90;;;;;;4997771;28;20455;-50
2023/04/11 12:00:30;;;;;;;1.70;1.33;;;10.20;99.90;;;;;;4998215;28;20448;-50
2023/04/11 12:02:58;;;;;;;2.03;1.77;;;10.10;99.90;;;;;;4997463;28;20550;-53
2023/04/11 12:05:28;;;;;;;2.27;1.50;;;10.00;99.90;;;;;;4996978;28;20488;-51
2023/04/11 12:07:57;;;;;;;3.17;1.87;;;10.00;99.90;;;;;;4998195;28;20998;-53
2023/04/11 12:10:25;;;;;;;4.20;1.60;;;9.80;99.90;;;;;;4996407;28;20543;-49
2023/04/11 12:12:51;;;;;;;1.40;1.00;;;9.80;99.90;;;;;;4997771;28;20496;-52
2023/04/11 12:15:20;;;;;;;1.60;1.40;;;9.70;99.90;;;;;;4997440;28;20472;-50
2023/04/11 12:17:48;;;;;;;1.13;0.83;;;9.60;99.90;;;;;;4997348;28;21001;-50
2023/04/11 12:20:16;;;;;;;1.93;1.10;;;9.70;99.90;;;;;;4997351;28;20448;-50
2023/04/11 12:22:44;;;;;;;1.47;1.17;;;9.60;99.90;;;;;;4997972;28;20472;-51
2023/04/11 12:25:12;;;;;;;1.00;0.70;;;9.40;99.90;;;;;;4996576;28;21023;-52
2023/04/11 12:27:40;;;;;;;1.17;0.50;;;9.40;99.90;;;;;;4995746;28;20444;-49
2023/04/11 12:30:08;;;;;;;4.63;2.10;;;9.30;99.90;;;;;;4995748;28;20444;-51
2023/04/11 12:32:36;;;;;;;1.40;1.10;;;9.30;99.90;;;;;;4995096;28;20507;-50
2023/04/11 12:35:04;;;;;;;1.87;0.80;;;9.10;99.90;;;;;;4995975;28;20444;-50
2023/04/11 12:37:31;;;;;;;1.30;0.77;;;9.10;99.90;;;;;;4995915;28;20495;-53
2023/04/11 12:39:59;;;;;;;1.27;1.13;;;9.00;99.90;;;;;;4996547;28;20606;-52
2023/04/11 12:42:26;;;;;;;1.93;0.83;;;9.00;99.90;;;;;;4997212;28;20511;-51
2023/04/11 12:44:54;;;;;;;1.10;0.90;;;8.90;99.90;;;;;;4996911;28;20510;-52
2023/04/11 12:47:20;;;;;;;1.30;1.10;;;8.90;99.90;;;;;;4996350;28;20522;-51
2023/04/11 12:49:47;;;;;;;1.57;1.10;;;8.90;99.90;;;;;;4996644;28;20516;-53
2023/04/11 12:52:15;;;;;;;1.13;0.77;;;8.90;99.90;;;;;;4997113;28;20468;-51
2023/04/11 12:54:42;;;;;;;0.97;0.67;;;8.80;99.90;;;;;;4996907;28;20444;-52
2023/04/11 12:57:11;;;;;;;1.33;0.70;;;8.80;99.90;;;;;;4996902;28;21063;-51
2023/04/11 12:59:38;;;;;;;1.80;1.17;;;8.80;99.90;;;;;;4997053;28;20452;-51
2023/04/11 13:02:04;;;;;;;1.30;0.90;;;8.80;99.90;;;;;;4996624;28;20902;-50
2023/04/11 13:04:31;;;;;;;0.93;0.70;;;8.70;99.90;;;;;;4996338;28;20451;-50